createdAt,value
2019-02-18T00:00:53.838Z,96015.01
2019-02-18T00:03:23.406Z,96013.99
2019-02-18T00:05:52.431Z,96012.42
2019-02-18T00:08:21.420Z,96014.27
2019-02-18T00:10:51.582Z,96017.28
2019-02-18T00:13:20.538Z,96019.38
2019-02-18T00:15:49.635Z,96017.70
2019-02-18T00:18:19.456Z,96013.58
2019-02-18T00:20:49.035Z,96013.16
2019-02-18T00:23:17.849Z,96010.58
2019-02-18T00:25:46.774Z,96008.38
2019-02-18T00:28:15.738Z,96014.28
2019-02-18T00:30:45.601Z,96008.89
2019-02-18T00:33:15.182Z,96008.26
2019-02-18T00:35:44.566Z,96008.92
2019-02-18T00:38:15.056Z,96007.23
2019-02-18T00:40:44.434Z,96007.91
2019-02-18T00:43:13.996Z,95998.29
2019-02-18T00:45:43.093Z,95993.84
2019-02-18T00:48:12.352Z,95991.46
2019-02-18T00:50:41.538Z,95979.23
2019-02-18T00:53:10.499Z,95985.03
2019-02-18T00:55:39.874Z,95979.59
2019-02-18T00:58:09.080Z,95985.59
2019-02-18T01:00:37.967Z,95988.48
2019-02-18T01:03:07.133Z,95980.16
2019-02-18T01:05:36.052Z,95975.67
2019-02-18T01:08:05.562Z,95969.63
2019-02-18T01:10:34.535Z,95974.41
2019-02-18T01:13:03.464Z,95970.92
2019-02-18T01:15:32.354Z,95966.99
2019-02-18T01:18:01.816Z,95968.69
2019-02-18T01:20:31.533Z,95970.41
2019-02-18T01:23:00.464Z,95968.77
2019-02-18T01:25:29.351Z,95963.05
2019-02-18T01:27:58.740Z,95968.75
2019-02-18T01:30:27.745Z,95959.84
2019-02-18T01:32:57.055Z,95960.62
2019-02-18T01:35:26.371Z,95959.98
2019-02-18T01:37:55.335Z,95956.92
2019-02-18T01:40:25.192Z,95959.40
2019-02-18T01:42:54.127Z,95950.30
2019-02-18T01:45:23.751Z,95948.93
2019-02-18T01:47:52.797Z,95953.91
2019-02-18T01:50:22.138Z,95946.87
2019-02-18T01:52:51.286Z,95949.07
2019-02-18T01:55:20.542Z,95947.81
2019-02-18T01:57:49.531Z,95949.13
2019-02-18T02:00:18.695Z,95954.61
2019-02-18T02:02:47.834Z,95950.41
2019-02-18T02:05:17.519Z,95916.20
2019-02-18T02:07:55.904Z,95940.11
2019-02-18T02:10:16.160Z,95941.44
2019-02-18T02:12:45.018Z,95946.44
2019-02-18T02:15:17.664Z,95941.47
2019-02-18T02:17:47.496Z,95947.97
2019-02-18T02:20:16.548Z,95947.56
2019-02-18T02:22:46.471Z,95941.84
2019-02-18T02:25:15.227Z,95945.30
2019-02-18T02:27:45.444Z,95949.70
2019-02-18T02:30:14.546Z,95942.66
2019-02-18T02:32:44.377Z,95940.50
2019-02-18T02:35:13.531Z,95942.91
2019-02-18T02:37:43.122Z,95939.98
2019-02-18T02:40:13.079Z,95953.56
2019-02-18T02:42:42.796Z,95941.92
2019-02-18T02:45:12.851Z,95948.66
2019-02-18T02:47:41.908Z,95957.42
2019-02-18T02:50:11.720Z,95952.58
2019-02-18T02:52:40.757Z,95956.44
2019-02-18T02:55:10.726Z,95949.83
2019-02-18T02:57:41.286Z,95945.02
2019-02-18T03:00:10.670Z,95945.66
2019-02-18T03:02:39.669Z,95940.03
2019-02-18T03:05:08.598Z,95940.98
2019-02-18T03:07:38.360Z,95948.75
2019-02-18T03:10:07.581Z,95946.66
2019-02-18T03:12:37.167Z,95953.09
2019-02-18T03:15:06.260Z,95951.67
2019-02-18T03:17:35.359Z,95959.07
2019-02-18T03:20:04.566Z,95951.69
2019-02-18T03:22:33.819Z,95953.31
2019-02-18T03:25:13.407Z,95963.44
2019-02-18T03:27:42.475Z,95960.05
2019-02-18T03:30:51.539Z,95954.26
2019-02-18T03:33:24.153Z,95955.55
2019-02-18T03:35:52.994Z,95957.00
2019-02-18T03:38:31.219Z,95957.98
2019-02-18T03:41:02.816Z,95950.09
2019-02-18T04:00:08.430Z,95954.62
2019-02-18T04:02:37.579Z,95953.66
2019-02-18T04:05:07.046Z,95954.64
2019-02-18T04:07:36.693Z,95954.14
2019-02-18T04:10:05.874Z,95952.20
2019-02-18T04:12:34.936Z,95950.45
2019-02-18T04:15:04.806Z,95948.17
2019-02-18T04:17:33.741Z,95949.48
2019-02-18T04:20:02.974Z,95951.42
2019-02-18T04:22:32.530Z,95951.56
2019-02-18T04:25:02.115Z,95954.16
2019-02-18T04:27:31.062Z,95963.80
2019-02-18T04:30:00.430Z,95955.59
2019-02-18T04:32:29.331Z,95959.44
2019-02-18T04:34:58.724Z,95961.20
2019-02-18T04:37:28.530Z,95965.89
2019-02-18T04:39:58.521Z,95972.14
2019-02-18T04:42:27.598Z,95972.14
2019-02-18T04:44:56.606Z,95971.35
2019-02-18T04:47:25.893Z,95972.95
2019-02-18T04:49:54.739Z,95970.39
2019-02-18T04:52:23.848Z,95978.11
2019-02-18T04:54:52.793Z,95962.33
2019-02-18T04:57:21.852Z,95975.01
2019-02-18T04:59:50.858Z,95975.02
2019-02-18T05:02:20.114Z,95978.63
2019-02-18T05:04:49.114Z,95983.80
2019-02-18T05:07:18.085Z,95982.55
2019-02-18T05:09:47.224Z,95988.98
2019-02-18T05:12:16.121Z,95984.98
2019-02-18T05:14:45.242Z,95984.81
2019-02-18T05:17:14.403Z,95983.22
2019-02-18T05:19:43.394Z,95991.73
2019-02-18T05:22:13.142Z,95993.48
2019-02-18T05:24:42.097Z,95988.05
2019-02-18T05:27:11.651Z,95992.26
2019-02-18T05:29:41.534Z,95995.78
2019-02-18T05:32:10.619Z,95995.14
2019-02-18T05:34:39.624Z,95999.01
2019-02-18T05:37:08.845Z,95993.52
2019-02-18T05:39:37.917Z,95999.31
2019-02-18T05:42:06.588Z,96005.25
2019-02-18T05:44:35.516Z,96007.05
2019-02-18T05:47:04.640Z,96007.09
2019-02-18T05:49:33.480Z,96003.69
2019-02-18T05:52:03.227Z,96009.18
2019-02-18T05:54:33.441Z,96012.55
2019-02-18T05:57:02.384Z,96017.03
2019-02-18T05:59:31.759Z,96012.86
2019-02-18T06:02:00.841Z,96021.55
2019-02-18T06:04:30.010Z,96020.91
2019-02-18T06:06:59.125Z,96019.12
2019-02-18T06:09:30.222Z,96021.55
2019-02-18T06:11:57.396Z,96020.59
2019-02-18T06:14:26.737Z,96017.84
2019-02-18T06:16:55.729Z,96019.48
2019-02-18T06:19:25.575Z,96026.23
2019-02-18T06:21:55.045Z,96020.92
2019-02-18T06:24:24.038Z,96025.44
2019-02-18T06:26:53.825Z,96027.34
2019-02-18T06:29:22.849Z,96027.52
2019-02-18T06:31:51.795Z,96033.16
2019-02-18T06:34:20.688Z,96031.53
2019-02-18T06:36:50.509Z,96034.75
2019-02-18T06:39:19.715Z,96031.68
2019-02-18T06:41:48.806Z,96033.11
2019-02-18T06:44:19.007Z,96032.50
2019-02-18T06:46:53.855Z,96034.40
2019-02-18T06:49:25.365Z,96039.39
2019-02-18T06:51:54.397Z,96034.53
2019-02-18T06:54:23.395Z,96043.73
2019-02-18T06:57:55.469Z,96041.31
2019-02-18T07:00:28.474Z,96046.60
2019-02-18T07:03:06.481Z,96049.60
2019-02-18T07:05:41.582Z,96053.98
2019-02-18T07:08:18.611Z,96046.36
2019-02-18T07:10:51.963Z,96047.13
2019-02-18T07:13:21.032Z,96044.48
2019-02-18T07:15:50.061Z,96042.18
2019-02-18T07:18:19.164Z,96045.59
2019-02-18T07:20:48.299Z,96045.65
2019-02-18T07:23:17.555Z,96043.91
2019-02-18T07:25:47.337Z,96044.13
2019-02-18T07:28:16.246Z,96035.04
2019-02-18T07:30:45.154Z,96031.34
2019-02-18T07:33:14.349Z,96029.52
2019-02-18T07:35:43.272Z,96031.55
2019-02-18T07:38:12.599Z,96034.33
2019-02-18T07:40:42.153Z,96026.44
2019-02-18T07:43:12.197Z,96028.79
2019-02-18T07:45:41.421Z,96027.04
2019-02-18T07:48:10.576Z,96027.50
2019-02-18T07:50:39.899Z,96020.84
2019-02-18T07:53:08.948Z,96035.78
2019-02-18T07:55:38.043Z,96028.75
2019-02-18T07:58:07.605Z,96023.87
2019-02-18T08:00:36.656Z,96027.92
2019-02-18T08:03:05.649Z,96029.17
2019-02-18T08:05:34.862Z,96026.07
2019-02-18T08:08:03.771Z,96022.83
2019-02-18T08:10:32.636Z,96020.13
2019-02-18T08:13:01.657Z,96022.48
2019-02-18T08:15:30.947Z,96023.21
2019-02-18T08:18:00.727Z,96023.57
2019-02-18T08:20:30.464Z,96019.48
2019-02-18T08:22:59.747Z,96014.76
2019-02-18T08:25:29.076Z,96011.34
2019-02-18T08:27:58.249Z,96006.72
2019-02-18T08:30:27.803Z,96005.78
2019-02-18T08:32:56.955Z,96008.84
2019-02-18T08:35:26.057Z,96010.09
2019-02-18T08:37:55.033Z,96007.73
2019-02-18T08:40:24.665Z,96003.61
2019-02-18T08:42:53.620Z,95998.06
2019-02-18T08:45:23.176Z,95994.92
2019-02-18T08:47:52.207Z,95995.00
2019-02-18T08:50:21.672Z,95994.09
2019-02-18T08:52:51.383Z,95998.30
2019-02-18T08:55:20.330Z,95994.16
2019-02-18T08:57:49.223Z,95992.47
2019-02-18T09:00:18.310Z,95988.48
2019-02-18T09:02:48.104Z,95984.80
2019-02-18T09:05:17.230Z,95986.06
2019-02-18T09:07:46.148Z,95985.47
2019-02-18T09:10:15.862Z,95983.03
2019-02-18T09:12:44.960Z,95989.31
2019-02-18T09:15:14.521Z,95989.74
2019-02-18T09:17:43.288Z,95983.23
2019-02-18T09:20:12.445Z,95983.89
2019-02-18T09:23:50.566Z,95983.76
2019-02-18T09:26:19.553Z,95981.85
2019-02-18T09:28:48.346Z,95974.38
2019-02-18T09:31:17.364Z,95971.98
2019-02-18T09:33:46.336Z,95967.33
2019-02-18T09:36:15.731Z,95965.90
2019-02-18T09:38:44.772Z,95965.38
2019-02-18T09:41:14.125Z,95957.39
2019-02-18T09:43:43.242Z,95955.58
2019-02-18T09:46:12.777Z,95949.12
2019-02-18T09:48:42.106Z,95943.36
2019-02-18T09:51:11.554Z,95943.56
2019-02-18T09:53:40.621Z,95938.41
2019-02-18T09:56:10.659Z,95942.58
2019-02-18T09:58:40.484Z,95933.42
2019-02-18T10:01:09.522Z,95926.88
2019-02-18T10:03:38.342Z,95929.15
2019-02-18T10:06:07.924Z,95925.58
2019-02-18T10:08:37.051Z,95918.09
2019-02-18T10:11:05.971Z,95909.02
2019-02-18T10:13:35.350Z,95914.18
2019-02-18T10:16:05.288Z,95906.22
2019-02-18T10:18:34.273Z,95903.38
2019-02-18T10:21:03.266Z,95897.48
2019-02-18T10:23:33.460Z,95896.12
2019-02-18T10:26:02.493Z,95887.26
2019-02-18T10:28:32.013Z,95887.94
2019-02-18T10:31:01.007Z,95880.33
2019-02-18T10:33:30.375Z,95877.83
2019-02-18T10:35:59.679Z,95872.53
2019-02-18T10:38:29.080Z,95874.37
2019-02-18T10:41:06.649Z,95871.75
2019-02-18T10:43:32.411Z,95867.25
2019-02-18T10:45:57.324Z,95856.99
2019-02-18T10:48:26.488Z,95855.30
2019-02-18T10:50:55.497Z,95848.45
2019-02-18T10:53:26.164Z,95839.35
2019-02-18T10:55:56.470Z,95836.28
2019-02-18T10:58:25.584Z,95833.51
2019-02-18T11:00:54.576Z,95823.63
2019-02-18T11:03:24.544Z,95828.76
2019-02-18T11:05:53.935Z,95817.86
2019-02-18T11:08:23.384Z,95805.00
2019-02-18T11:10:52.799Z,95807.45
2019-02-18T11:13:22.591Z,95801.06
2019-02-18T11:15:52.328Z,95805.23
2019-02-18T11:18:21.383Z,95795.51
2019-02-18T11:20:50.576Z,95790.13
2019-02-18T11:23:19.712Z,95792.95
2019-02-18T11:25:48.873Z,95787.16
2019-02-18T11:45:03.516Z,95759.83
2019-02-18T11:47:32.598Z,95752.39
2019-02-18T11:50:02.273Z,95758.94
2019-02-18T11:52:31.271Z,95750.58
2019-02-18T11:55:01.362Z,95744.76
2019-02-18T11:57:31.708Z,95738.95
2019-02-18T11:59:59.863Z,95740.30
2019-02-18T12:02:28.805Z,95731.06
2019-02-18T12:04:57.964Z,95718.34
2019-02-18T12:07:27.900Z,95715.42
2019-02-18T12:09:56.971Z,95714.87
2019-02-18T12:12:26.074Z,95706.88
2019-02-18T12:14:55.131Z,95698.19
2019-02-18T12:17:24.255Z,95696.41
2019-02-18T12:19:53.534Z,95701.33
2019-02-18T12:22:22.931Z,95690.91
2019-02-18T12:24:51.828Z,95683.76
2019-02-18T12:27:21.059Z,95689.62
2019-02-18T12:29:50.412Z,95685.89
2019-02-18T12:32:19.562Z,95682.55
2019-02-18T12:34:49.224Z,95677.28
2019-02-18T12:37:18.402Z,95677.77
2019-02-18T12:39:47.657Z,95678.57
2019-02-18T12:42:17.341Z,95671.56
2019-02-18T12:44:46.460Z,95658.16
2019-02-18T12:47:15.518Z,95658.22
2019-02-18T12:49:44.580Z,95656.67
2019-02-18T12:52:13.998Z,95649.37
2019-02-18T12:54:43.172Z,95653.47
2019-02-18T12:57:12.858Z,95645.34
2019-02-18T12:59:42.142Z,95649.34
2019-02-18T13:02:12.161Z,95641.91
2019-02-18T13:04:41.089Z,95642.64
2019-02-18T13:07:10.221Z,95636.63
2019-02-18T13:09:40.247Z,95640.99
2019-02-18T13:12:09.554Z,95631.81
2019-02-18T13:14:39.945Z,95634.02
2019-02-18T13:17:09.467Z,95628.00
2019-02-18T13:19:38.920Z,95634.91
2019-02-18T13:22:08.929Z,95627.71
2019-02-18T13:24:39.353Z,95631.78
2019-02-18T13:27:08.475Z,95631.62
2019-02-18T13:29:38.112Z,95627.67
2019-02-18T13:32:07.145Z,95627.84
2019-02-18T13:34:37.192Z,95616.34
2019-02-18T13:37:11.180Z,95627.07
2019-02-18T13:39:40.103Z,95618.47
2019-02-18T13:42:08.899Z,95615.59
2019-02-18T13:44:38.327Z,95608.28
2019-02-18T13:47:07.509Z,95609.18
2019-02-18T13:49:37.617Z,95609.25
2019-02-18T13:52:06.860Z,95602.51
2019-02-18T13:54:36.417Z,95601.54
2019-02-18T13:57:10.033Z,95614.67
2019-02-18T13:59:35.531Z,95612.19
2019-02-18T14:02:04.748Z,95608.98
2019-02-18T14:04:34.259Z,95613.79
2019-02-18T14:07:03.404Z,95606.16
2019-02-18T14:09:34.291Z,95605.30
2019-02-18T14:12:03.663Z,95603.64
2019-02-18T14:14:33.203Z,95597.83
2019-02-18T14:17:02.379Z,95598.02
2019-02-18T14:19:31.299Z,95600.21
2019-02-18T14:22:00.492Z,95596.53
2019-02-18T14:24:30.733Z,95596.11
2019-02-18T14:27:00.320Z,95591.45
2019-02-18T14:29:30.599Z,95593.59
2019-02-18T14:32:00.393Z,95598.10
2019-02-18T14:34:29.507Z,95599.09
2019-02-18T14:36:59.262Z,95593.22
2019-02-18T14:39:28.144Z,95594.53
2019-02-18T14:41:57.372Z,95597.98
2019-02-18T15:01:11.220Z,95604.35
2019-02-18T15:03:41.263Z,95610.50
2019-02-18T15:06:10.702Z,95603.61
2019-02-18T15:08:39.507Z,95607.64
2019-02-18T15:13:36.445Z,95603.75
2019-02-18T15:16:05.937Z,95612.11
2019-02-18T15:18:36.304Z,95610.36
2019-02-18T15:21:06.050Z,95608.27
2019-02-18T15:23:35.014Z,95607.75
2019-02-18T15:26:04.175Z,95605.38
2019-02-18T15:28:33.004Z,95604.63
2019-02-18T15:31:02.502Z,95605.14
2019-02-18T15:33:31.765Z,95606.73
2019-02-18T15:36:02.397Z,95604.08
2019-02-18T15:38:31.479Z,95613.80
2019-02-18T15:41:00.575Z,95608.45
2019-02-18T15:43:30.672Z,95617.71
2019-02-18T15:45:59.910Z,95615.74
2019-02-18T15:48:29.520Z,95618.02
2019-02-18T15:50:58.629Z,95619.95
2019-02-18T15:53:27.663Z,95614.84
2019-02-18T15:55:56.999Z,95618.65
2019-02-18T15:58:26.182Z,95623.98
2019-02-18T16:17:39.847Z,95630.48
2019-02-18T16:20:10.767Z,95626.66
2019-02-18T16:22:39.650Z,95629.41
2019-02-18T16:25:11.603Z,95631.30
2019-02-18T16:27:40.900Z,95632.93
2019-02-18T16:30:12.380Z,95638.93
2019-02-18T16:32:41.497Z,95642.84
2019-02-18T16:35:10.727Z,95642.91
2019-02-18T16:37:40.576Z,95642.72
2019-02-18T16:40:11.678Z,95649.28
2019-02-18T16:42:40.843Z,95650.56
2019-02-18T16:45:11.466Z,95653.18
2019-02-18T16:47:40.629Z,95664.75
2019-02-18T17:06:55.667Z,95683.66
2019-02-18T17:09:25.074Z,95677.81
2019-02-18T17:11:54.734Z,95681.67
2019-02-18T17:14:23.883Z,95678.58
2019-02-18T17:16:52.969Z,95680.11
2019-02-18T17:19:21.985Z,95687.72
2019-02-18T17:21:50.923Z,95683.84
2019-02-18T17:41:05.608Z,95698.95
2019-02-18T17:43:34.692Z,95694.95
2019-02-18T17:46:03.969Z,95698.33
2019-02-18T17:48:33.096Z,95696.14
2019-02-18T17:53:26.949Z,95701.09
2019-02-18T17:55:55.878Z,95702.24
2019-02-18T17:58:24.904Z,95707.27
2019-02-18T18:00:54.877Z,95707.05
2019-02-18T18:03:23.873Z,95715.89
2019-02-18T18:05:53.398Z,95720.10
2019-02-18T18:08:22.500Z,95723.30
2019-02-18T18:10:51.500Z,95724.09
2019-02-18T18:13:25.103Z,95723.58
2019-02-18T18:15:50.931Z,95726.72
2019-02-18T18:18:20.132Z,95730.12
2019-02-18T18:20:49.222Z,95729.61
2019-02-18T18:23:18.175Z,95725.34
2019-02-18T18:25:47.002Z,95728.22
2019-02-18T18:28:16.399Z,95732.13
2019-02-18T18:30:45.243Z,95733.66
2019-02-18T18:33:14.368Z,95731.87
2019-02-18T18:35:43.286Z,95728.09
2019-02-18T18:38:12.351Z,95734.34
2019-02-18T18:40:41.467Z,95738.98
2019-02-18T18:43:10.542Z,95735.64
2019-02-18T18:45:40.388Z,95733.74
2019-02-18T18:48:09.729Z,95731.53
2019-02-18T18:50:39.320Z,95740.29
2019-02-18T18:53:08.808Z,95744.06
2019-02-18T18:55:37.930Z,95739.09
2019-02-18T18:58:07.101Z,95751.23
2019-02-18T19:00:36.770Z,95750.25
2019-02-18T19:03:06.067Z,95750.18
2019-02-18T19:05:35.205Z,95749.62
2019-02-18T19:08:04.071Z,95751.68
2019-02-18T19:10:33.272Z,95753.91
2019-02-18T19:13:02.369Z,95758.89
2019-02-18T19:15:38.663Z,95754.20
2019-02-18T19:18:09.691Z,95762.55
2019-02-18T19:23:26.316Z,95768.72
2019-02-18T19:25:55.441Z,95765.13
2019-02-18T19:28:24.727Z,95757.13
2019-02-18T19:30:53.638Z,95760.61
2019-02-18T19:33:22.696Z,95767.92
2019-02-18T19:35:51.796Z,95764.69
2019-02-18T19:38:21.134Z,95764.89
2019-02-18T19:40:50.198Z,95772.94
2019-02-18T19:43:19.279Z,95768.86
2019-02-18T19:45:48.455Z,95770.51
2019-02-18T19:48:17.670Z,95775.50
2019-02-18T19:50:46.655Z,95776.09
2019-02-18T19:53:15.691Z,95771.85
2019-02-18T19:55:45.268Z,95779.52
2019-02-18T19:58:14.448Z,95779.07
2019-02-18T20:00:43.604Z,95782.38
2019-02-18T20:03:12.665Z,95780.48
2019-02-18T20:05:41.857Z,95781.58
2019-02-18T20:08:11.500Z,95774.57
2019-02-18T20:10:40.349Z,95770.31
2019-02-18T20:13:09.766Z,95771.09
2019-02-18T20:15:38.804Z,95769.48
2019-02-18T20:18:07.859Z,95773.11
2019-02-18T20:20:36.756Z,95770.30
2019-02-18T20:23:06.488Z,95772.98
2019-02-18T20:25:35.557Z,95770.98
2019-02-18T20:28:04.842Z,95770.29
2019-02-18T20:30:33.993Z,95770.98
2019-02-18T20:33:03.049Z,95774.57
2019-02-18T20:35:32.816Z,95773.70
2019-02-18T20:38:01.795Z,95770.61
2019-02-18T20:40:30.801Z,95770.24
2019-02-18T20:42:59.901Z,95770.62
2019-02-18T20:45:30.017Z,95773.28
2019-02-18T20:47:59.056Z,95774.33
2019-02-18T20:50:28.062Z,95778.02
2019-02-18T20:52:56.965Z,95779.84
2019-02-18T20:55:26.548Z,95777.82
2019-02-18T20:57:55.729Z,95775.29
2019-02-18T21:00:24.843Z,95775.75
2019-02-18T21:02:54.876Z,95777.52
2019-02-18T21:05:23.736Z,95775.91
2019-02-18T21:07:53.582Z,95777.25
2019-02-18T21:10:24.160Z,95780.27
2019-02-18T21:12:52.443Z,95786.34
2019-02-18T21:15:21.676Z,95783.27
2019-02-18T21:17:50.358Z,95788.27
2019-02-18T21:20:19.404Z,95787.79
2019-02-18T21:22:48.355Z,95785.03
2019-02-18T21:25:17.437Z,95789.96
2019-02-18T21:27:47.172Z,95785.20
2019-02-18T21:30:16.135Z,95785.88
2019-02-18T21:32:44.884Z,95785.88
2019-02-18T21:35:13.952Z,95784.85
2019-02-18T21:37:43.059Z,95788.39
2019-02-18T21:40:12.244Z,95791.81
2019-02-18T21:42:41.339Z,95791.84
2019-02-18T21:45:10.811Z,95797.03
2019-02-18T21:47:40.421Z,95789.28
2019-02-18T21:50:09.349Z,95796.90
2019-02-18T21:52:38.511Z,95798.27
2019-02-18T21:55:07.753Z,95792.23
2019-02-18T21:57:36.816Z,95798.12
2019-02-18T22:00:08.079Z,95805.10
2019-02-18T22:02:37.361Z,95802.44
2019-02-18T22:05:06.944Z,95802.00
2019-02-18T22:07:36.162Z,95807.33
2019-02-18T22:10:04.993Z,95801.23
2019-02-18T22:12:34.608Z,95801.66
2019-02-18T22:15:03.711Z,95804.42
2019-02-18T22:17:32.758Z,95806.37
2019-02-18T22:20:01.865Z,95807.09
2019-02-18T22:22:30.909Z,95806.64
2019-02-18T22:25:00.287Z,95806.58
2019-02-18T22:27:29.205Z,95816.23
2019-02-18T22:29:59.016Z,95815.06
2019-02-18T22:32:27.847Z,95810.95
2019-02-18T22:34:56.651Z,95815.67
2019-02-18T22:37:26.368Z,95806.90
2019-02-18T22:39:55.359Z,95808.27
2019-02-18T22:42:25.965Z,95816.63
2019-02-18T22:44:54.845Z,95810.40
2019-02-18T22:47:23.923Z,95815.36
2019-02-18T22:49:53.004Z,95821.72
2019-02-18T22:52:22.055Z,95819.48
2019-02-18T22:54:51.085Z,95820.83
2019-02-18T22:57:20.181Z,95821.47
2019-02-18T22:59:49.239Z,95826.55
2019-02-18T23:02:18.351Z,95822.53
2019-02-18T23:04:47.919Z,95822.11
2019-02-18T23:07:17.265Z,95829.55
2019-02-18T23:09:46.482Z,95822.58
2019-02-18T23:12:16.236Z,95824.80
2019-02-18T23:14:50.507Z,95824.70
2019-02-18T23:17:15.076Z,95819.81
2019-02-18T23:19:45.728Z,95825.31
2019-02-18T23:22:15.335Z,95826.96
2019-02-18T23:24:44.361Z,95826.62
2019-02-18T23:27:14.515Z,95820.57
2019-02-18T23:29:43.624Z,95821.66
2019-02-18T23:32:12.726Z,95819.99
2019-02-18T23:34:41.952Z,95822.05
2019-02-18T23:37:11.518Z,95826.13
2019-02-18T23:39:41.067Z,95829.78
2019-02-18T23:42:10.768Z,95828.41
2019-02-18T23:44:39.829Z,95820.57
2019-02-18T23:47:09.329Z,95808.10
2019-02-18T23:49:38.776Z,95807.06
2019-02-18T23:52:07.740Z,95808.52
2019-02-18T23:54:36.805Z,95813.07
2019-02-18T23:57:05.927Z,95805.03
2019-02-18T23:59:36.182Z,95808.31
